sensor_id;sensor_type;location;lat;lon;timestamp;temperature;humidity
42261;DHT22;27926;48.062;7.474;2023-05-02T00:02:04;12.00;99.90
42261;DHT22;27926;48.062;7.474;2023-05-02T00:04:28;12.00;99.90
42261;DHT22;27926;48.062;7.474;2023-05-02T00:06:53;12.10;99.90
42261;DHT22;27926;48.062;7.474;2023-05-02T00:09:18;12.10;99.90
42261;DHT22;27926;48.062;7.474;2023-05-02T00:11:42;12.10;99.90
42261;DHT22;27926;48.062;7.474;2023-05-02T00:14:07;12.20;99.90
42261;DHT22;27926;48.062;7.474;2023-05-02T00:16:34;12.10;99.90
42261;DHT22;27926;48.062;7.474;2023-05-02T00:18:59;12.10;99.90
42261;DHT22;27926;48.062;7.474;2023-05-02T00:21:23;12.10;99.90
42261;DHT22;27926;48.062;7.474;2023-05-02T00:23:53;12.20;99.90
42261;DHT22;27926;48.062;7.474;2023-05-02T00:26:20;12.20;99.90
42261;DHT22;27926;48.062;7.474;2023-05-02T00:28:44;12.30;99.90
42261;DHT22;27926;48.062;7.474;2023-05-02T00:31:09;12.30;99.90
42261;DHT22;27926;48.062;7.474;2023-05-02T00:33:34;12.40;99.90
42261;DHT22;27926;48.062;7.474;2023-05-02T00:35:58;12.40;99.90
42261;DHT22;27926;48.062;7.474;2023-05-02T00:38:23;12.40;99.90
42261;DHT22;27926;48.062;7.474;2023-05-02T00:40:49;12.40;99.90
42261;DHT22;27926;48.062;7.474;2023-05-02T00:43:17;12.40;99.90
42261;DHT22;27926;48.062;7.474;2023-05-02T00:45:42;12.40;99.90
42261;DHT22;27926;48.062;7.474;2023-05-02T00:48:07;12.40;99.90
42261;DHT22;27926;48.062;7.474;2023-05-02T00:50:34;12.40;99.90
42261;DHT22;27926;48.062;7.474;2023-05-02T00:53:00;12.50;99.90
42261;DHT22;27926;48.062;7.474;2023-05-02T00:55:27;12.40;99.90
42261;DHT22;27926;48.062;7.474;2023-05-02T00:57:52;12.40;99.90
42261;DHT22;27926;48.062;7.474;2023-05-02T01:00:16;12.40;99.90
42261;DHT22;27926;48.062;7.474;2023-05-02T01:02:55;12.30;99.90
42261;DHT22;27926;48.062;7.474;2023-05-02T01:05:27;12.30;99.90
42261;DHT22;27926;48.062;7.474;2023-05-02T01:13:27;12.30;99.90
42261;DHT22;27926;48.062;7.474;2023-05-02T01:15:53;12.30;99.90
42261;DHT22;27926;48.062;7.474;2023-05-02T01:18:22;12.30;99.90
42261;DHT22;27926;48.062;7.474;2023-05-02T01:20:52;12.20;99.90
42261;DHT22;27926;48.062;7.474;2023-05-02T01:25:59;12.20;99.90
42261;DHT22;27926;48.062;7.474;2023-05-02T01:30:58;12.10;99.90
42261;DHT22;27926;48.062;7.474;2023-05-02T01:33:24;12.10;99.90
42261;DHT22;27926;48.062;7.474;2023-05-02T01:35:51;12.10;99.90
42261;DHT22;27926;48.062;7.474;2023-05-02T01:38:18;12.20;99.90
42261;DHT22;27926;48.062;7.474;2023-05-02T01:40:44;12.20;99.90
42261;DHT22;27926;48.062;7.474;2023-05-02T01:43:14;12.10;99.90
42261;DHT22;27926;48.062;7.474;2023-05-02T01:45:40;12.10;99.90
42261;DHT22;27926;48.062;7.474;2023-05-02T01:48:08;12.00;99.90
42261;DHT22;27926;48.062;7.474;2023-05-02T01:50:35;12.00;99.90
42261;DHT22;27926;48.062;7.474;2023-05-02T01:53:01;12.10;99.90
42261;DHT22;27926;48.062;7.474;2023-05-02T01:55:27;12.00;99.90
42261;DHT22;27926;48.062;7.474;2023-05-02T01:57:53;11.80;99.90
42261;DHT22;27926;48.062;7.474;2023-05-02T02:00:19;11.80;99.90
42261;DHT22;27926;48.062;7.474;2023-05-02T02:02:47;11.80;99.90
42261;DHT22;27926;48.062;7.474;2023-05-02T02:05:13;11.80;99.90
42261;DHT22;27926;48.062;7.474;2023-05-02T02:07:38;11.70;99.90
42261;DHT22;27926;48.062;7.474;2023-05-02T02:10:02;11.60;99.90
42261;DHT22;27926;48.062;7.474;2023-05-02T02:12:41;11.50;99.90
42261;DHT22;27926;48.062;7.474;2023-05-02T02:15:26;11.40;99.90
42261;DHT22;27926;48.062;7.474;2023-05-02T02:18:00;11.40;99.90
42261;DHT22;27926;48.062;7.474;2023-05-02T02:20:26;11.40;99.90
42261;DHT22;27926;48.062;7.474;2023-05-02T02:22:52;11.30;99.90
42261;DHT22;27926;48.062;7.474;2023-05-02T02:25:19;11.20;99.90
42261;DHT22;27926;48.062;7.474;2023-05-02T02:27:43;11.10;99.90
42261;DHT22;27926;48.062;7.474;2023-05-02T02:30:09;11.00;99.90
42261;DHT22;27926;48.062;7.474;2023-05-02T02:32:34;10.90;99.90
42261;DHT22;27926;48.062;7.474;2023-05-02T02:34:59;10.80;99.90
42261;DHT22;27926;48.062;7.474;2023-05-02T02:37:32;10.70;99.90
42261;DHT22;27926;48.062;7.474;2023-05-02T02:39:59;10.60;99.90
42261;DHT22;27926;48.062;7.474;2023-05-02T02:47:58;10.40;99.90
42261;DHT22;27926;48.062;7.474;2023-05-02T02:50:37;10.30;99.90
42261;DHT22;27926;48.062;7.474;2023-05-02T02:53:08;10.20;99.90
42261;DHT22;27926;48.062;7.474;2023-05-02T02:55:49;10.20;99.90
42261;DHT22;27926;48.062;7.474;2023-05-02T02:58:29;10.10;99.90
42261;DHT22;27926;48.062;7.474;2023-05-02T03:00:55;10.00;99.90
42261;DHT22;27926;48.062;7.474;2023-05-02T03:03:23;10.00;99.90
42261;DHT22;27926;48.062;7.474;2023-05-02T03:05:52;9.90;99.90
42261;DHT22;27926;48.062;7.474;2023-05-02T03:08:17;9.80;99.90
42261;DHT22;27926;48.062;7.474;2023-05-02T03:10:41;9.90;99.90
42261;DHT22;27926;48.062;7.474;2023-05-02T03:13:06;9.80;99.90
42261;DHT22;27926;48.062;7.474;2023-05-02T03:18:17;9.70;99.90
42261;DHT22;27926;48.062;7.474;2023-05-02T03:20:42;9.70;99.90
42261;DHT22;27926;48.062;7.474;2023-05-02T03:23:07;9.60;99.90
42261;DHT22;27926;48.062;7.474;2023-05-02T03:25:31;9.50;99.90
42261;DHT22;27926;48.062;7.474;2023-05-02T03:27:56;9.60;99.90
42261;DHT22;27926;48.062;7.474;2023-05-02T03:30:21;9.50;99.90
42261;DHT22;27926;48.062;7.474;2023-05-02T03:32:46;9.50;99.90
42261;DHT22;27926;48.062;7.474;2023-05-02T03:35:10;9.40;99.90
42261;DHT22;27926;48.062;7.474;2023-05-02T03:37:35;9.40;99.90
42261;DHT22;27926;48.062;7.474;2023-05-02T03:39:59;9.40;99.90
42261;DHT22;27926;48.062;7.474;2023-05-02T03:42:24;9.40;99.90
42261;DHT22;27926;48.062;7.474;2023-05-02T03:44:51;9.40;99.90
42261;DHT22;27926;48.062;7.474;2023-05-02T03:47:17;9.50;99.90
42261;DHT22;27926;48.062;7.474;2023-05-02T03:49:41;9.60;99.90
42261;DHT22;27926;48.062;7.474;2023-05-02T03:52:06;9.70;99.90
42261;DHT22;27926;48.062;7.474;2023-05-02T03:54:31;9.80;99.90
42261;DHT22;27926;48.062;7.474;2023-05-02T03:56:56;9.90;99.90
42261;DHT22;27926;48.062;7.474;2023-05-02T03:59:21;10.00;99.90
42261;DHT22;27926;48.062;7.474;2023-05-02T04:01:49;9.90;99.90
42261;DHT22;27926;48.062;7.474;2023-05-02T04:04:14;10.60;99.90
42261;DHT22;27926;48.062;7.474;2023-05-02T04:06:39;10.20;99.90
42261;DHT22;27926;48.062;7.474;2023-05-02T04:09:04;10.00;99.90
42261;DHT22;27926;48.062;7.474;2023-05-02T04:11:29;10.10;99.90
42261;DHT22;27926;48.062;7.474;2023-05-02T04:13:53;10.10;99.90
42261;DHT22;27926;48.062;7.474;2023-05-02T04:16:18;10.10;99.90
42261;DHT22;27926;48.062;7.474;2023-05-02T04:18:42;10.00;99.90
42261;DHT22;27926;48.062;7.474;2023-05-02T04:21:07;10.00;99.90
42261;DHT22;27926;48.062;7.474;2023-05-02T04:23:34;10.00;99.90
42261;DHT22;27926;48.062;7.474;2023-05-02T04:25:59;9.90;99.90
42261;DHT22;27926;48.062;7.474;2023-05-02T04:28:24;9.80;99.90
42261;DHT22;27926;48.062;7.474;2023-05-02T04:30:49;9.80;99.90
42261;DHT22;27926;48.062;7.474;2023-05-02T04:33:13;9.80;99.90
42261;DHT22;27926;48.062;7.474;2023-05-02T04:35:39;9.80;99.90
42261;DHT22;27926;48.062;7.474;2023-05-02T04:38:04;9.90;99.90
42261;DHT22;27926;48.062;7.474;2023-05-02T04:40:28;9.90;99.90
42261;DHT22;27926;48.062;7.474;2023-05-02T04:42:53;9.90;99.90
42261;DHT22;27926;48.062;7.474;2023-05-02T04:45:18;10.10;99.90
42261;DHT22;27926;48.062;7.474;2023-05-02T04:47:42;10.30;99.90
42261;DHT22;27926;48.062;7.474;2023-05-02T04:50:07;10.50;99.90
42261;DHT22;27926;48.062;7.474;2023-05-02T04:52:32;10.70;99.90
42261;DHT22;27926;48.062;7.474;2023-05-02T04:54:57;10.90;99.90
42261;DHT22;27926;48.062;7.474;2023-05-02T04:57:21;11.10;99.90
42261;DHT22;27926;48.062;7.474;2023-05-02T04:59:46;11.20;99.90
42261;DHT22;27926;48.062;7.474;2023-05-02T05:02:10;11.20;99.90
42261;DHT22;27926;48.062;7.474;2023-05-02T05:04:36;11.20;99.90
42261;DHT22;27926;48.062;7.474;2023-05-02T05:07:00;11.20;99.90
42261;DHT22;27926;48.062;7.474;2023-05-02T05:09:25;11.20;99.90
42261;DHT22;27926;48.062;7.474;2023-05-02T05:11:50;11.20;99.90
42261;DHT22;27926;48.062;7.474;2023-05-02T05:14:14;11.40;99.90
42261;DHT22;27926;48.062;7.474;2023-05-02T05:16:39;11.60;99.90
42261;DHT22;27926;48.062;7.474;2023-05-02T05:19:03;11.70;99.90
42261;DHT22;27926;48.062;7.474;2023-05-02T05:21:28;11.90;99.90
42261;DHT22;27926;48.062;7.474;2023-05-02T05:23:53;12.10;99.90
42261;DHT22;27926;48.062;7.474;2023-05-02T05:26:18;12.30;99.90
42261;DHT22;27926;48.062;7.474;2023-05-02T05:28:44;12.60;99.90
42261;DHT22;27926;48.062;7.474;2023-05-02T05:31:15;13.00;99.90
42261;DHT22;27926;48.062;7.474;2023-05-02T05:33:40;13.60;99.90
42261;DHT22;27926;48.062;7.474;2023-05-02T05:36:06;14.20;99.90
42261;DHT22;27926;48.062;7.474;2023-05-02T05:38:31;14.70;99.90
42261;DHT22;27926;48.062;7.474;2023-05-02T05:40:56;15.00;99.90
42261;DHT22;27926;48.062;7.474;2023-05-02T05:43:20;14.90;99.90
42261;DHT22;27926;48.062;7.474;2023-05-02T05:45:45;14.90;99.90
42261;DHT22;27926;48.062;7.474;2023-05-02T05:48:09;14.70;99.90
42261;DHT22;27926;48.062;7.474;2023-05-02T05:50:34;14.50;99.90
42261;DHT22;27926;48.062;7.474;2023-05-02T05:52:59;14.40;99.90
42261;DHT22;27926;48.062;7.474;2023-05-02T05:55:23;14.40;99.90
42261;DHT22;27926;48.062;7.474;2023-05-02T05:57:48;14.80;99.90
42261;DHT22;27926;48.062;7.474;2023-05-02T06:00:13;15.30;99.90
42261;DHT22;27926;48.062;7.474;2023-05-02T06:02:38;15.90;99.90
42261;DHT22;27926;48.062;7.474;2023-05-02T06:05:02;16.50;99.90
42261;DHT22;27926;48.062;7.474;2023-05-02T06:07:27;16.70;99.90
42261;DHT22;27926;48.062;7.474;2023-05-02T06:09:51;16.80;99.90
42261;DHT22;27926;48.062;7.474;2023-05-02T06:12:16;16.90;99.90
42261;DHT22;27926;48.062;7.474;2023-05-02T06:14:40;17.00;99.90
42261;DHT22;27926;48.062;7.474;2023-05-02T06:17:05;16.70;99.90
42261;DHT22;27926;48.062;7.474;2023-05-02T06:19:30;16.60;99.90
42261;DHT22;27926;48.062;7.474;2023-05-02T06:21:54;16.40;99.90
42261;DHT22;27926;48.062;7.474;2023-05-02T06:24:19;16.30;99.90
42261;DHT22;27926;48.062;7.474;2023-05-02T06:26:43;16.30;99.90
42261;DHT22;27926;48.062;7.474;2023-05-02T06:29:09;16.70;99.90
42261;DHT22;27926;48.062;7.474;2023-05-02T06:31:34;17.00;99.90
42261;DHT22;27926;48.062;7.474;2023-05-02T06:33:58;17.40;99.90
42261;DHT22;27926;48.062;7.474;2023-05-02T06:36:23;17.50;99.90
42261;DHT22;27926;48.062;7.474;2023-05-02T06:38:47;17.80;99.90
42261;DHT22;27926;48.062;7.474;2023-05-02T06:41:12;17.80;99.90
42261;DHT22;27926;48.062;7.474;2023-05-02T06:43:40;17.50;99.90
42261;DHT22;27926;48.062;7.474;2023-05-02T06:46:05;17.10;99.90
42261;DHT22;27926;48.062;7.474;2023-05-02T06:48:29;16.80;99.90
42261;DHT22;27926;48.062;7.474;2023-05-02T06:50:54;16.60;99.90
42261;DHT22;27926;48.062;7.474;2023-05-02T06:53:19;16.30;99.90
42261;DHT22;27926;48.062;7.474;2023-05-02T06:55:44;16.40;99.90
42261;DHT22;27926;48.062;7.474;2023-05-02T06:58:09;16.80;99.90
42261;DHT22;27926;48.062;7.474;2023-05-02T07:00:34;17.20;99.90
42261;DHT22;27926;48.062;7.474;2023-05-02T07:02:58;17.40;99.90
42261;DHT22;27926;48.062;7.474;2023-05-02T07:05:23;17.60;99.90
42261;DHT22;27926;48.062;7.474;2023-05-02T07:07:48;17.80;99.90
42261;DHT22;27926;48.062;7.474;2023-05-02T07:10:15;17.60;99.90
42261;DHT22;27926;48.062;7.474;2023-05-02T07:12:39;17.40;99.90
42261;DHT22;27926;48.062;7.474;2023-05-02T07:15:05;17.30;99.90
42261;DHT22;27926;48.062;7.474;2023-05-02T07:17:30;17.30;99.90
42261;DHT22;27926;48.062;7.474;2023-05-02T07:19:55;17.10;99.90
42261;DHT22;27926;48.062;7.474;2023-05-02T07:22:20;17.10;99.90
42261;DHT22;27926;48.062;7.474;2023-05-02T07:24:44;17.00;99.90
42261;DHT22;27926;48.062;7.474;2023-05-02T07:27:10;17.00;99.90
42261;DHT22;27926;48.062;7.474;2023-05-02T07:29:35;17.00;99.90
42261;DHT22;27926;48.062;7.474;2023-05-02T07:32:00;16.80;99.90
42261;DHT22;27926;48.062;7.474;2023-05-02T07:34:24;16.90;99.90
42261;DHT22;27926;48.062;7.474;2023-05-02T07:36:50;17.10;99.90
42261;DHT22;27926;48.062;7.474;2023-05-02T07:39:15;17.20;99.90
42261;DHT22;27926;48.062;7.474;2023-05-02T07:41:39;17.30;99.90
42261;DHT22;27926;48.062;7.474;2023-05-02T07:44:04;17.10;99.90
42261;DHT22;27926;48.062;7.474;2023-05-02T07:46:29;17.40;99.90
42261;DHT22;27926;48.062;7.474;2023-05-02T07:48:53;17.50;99.90
42261;DHT22;27926;48.062;7.474;2023-05-02T07:51:19;17.60;99.90
42261;DHT22;27926;48.062;7.474;2023-05-02T07:53:44;17.50;99.90
42261;DHT22;27926;48.062;7.474;2023-05-02T07:56:09;17.40;99.90
42261;DHT22;27926;48.062;7.474;2023-05-02T07:58:34;17.50;99.90
42261;DHT22;27926;48.062;7.474;2023-05-02T08:01:00;17.40;99.90
42261;DHT22;27926;48.062;7.474;2023-05-02T08:03:24;17.50;99.90
42261;DHT22;27926;48.062;7.474;2023-05-02T08:05:51;17.20;99.90
42261;DHT22;27926;48.062;7.474;2023-05-02T08:08:15;17.00;99.90
42261;DHT22;27926;48.062;7.474;2023-05-02T08:10:40;16.80;99.90
42261;DHT22;27926;48.062;7.474;2023-05-02T08:13:04;16.40;99.90
42261;DHT22;27926;48.062;7.474;2023-05-02T08:15:29;16.40;99.90
42261;DHT22;27926;48.062;7.474;2023-05-02T08:17:54;16.60;99.90
42261;DHT22;27926;48.062;7.474;2023-05-02T08:20:18;16.70;99.90
42261;DHT22;27926;48.062;7.474;2023-05-02T08:22:43;16.80;99.90
42261;DHT22;27926;48.062;7.474;2023-05-02T08:25:08;16.90;99.90
42261;DHT22;27926;48.062;7.474;2023-05-02T08:27:33;16.80;99.90
42261;DHT22;27926;48.062;7.474;2023-05-02T08:30:00;16.80;99.90
42261;DHT22;27926;48.062;7.474;2023-05-02T08:32:24;16.70;99.90
42261;DHT22;27926;48.062;7.474;2023-05-02T08:34:50;17.00;99.90
42261;DHT22;27926;48.062;7.474;2023-05-02T08:37:17;16.80;99.90
42261;DHT22;27926;48.062;7.474;2023-05-02T08:39:42;16.50;99.90
42261;DHT22;27926;48.062;7.474;2023-05-02T08:42:07;16.50;99.90
42261;DHT22;27926;48.062;7.474;2023-05-02T08:44:32;16.60;99.90
42261;DHT22;27926;48.062;7.474;2023-05-02T08:46:59;16.50;99.90
42261;DHT22;27926;48.062;7.474;2023-05-02T08:49:28;16.50;99.90
42261;DHT22;27926;48.062;7.474;2023-05-02T08:51:55;16.70;99.90
42261;DHT22;27926;48.062;7.474;2023-05-02T08:54:20;16.90;99.90
42261;DHT22;27926;48.062;7.474;2023-05-02T08:56:48;17.00;99.90
42261;DHT22;27926;48.062;7.474;2023-05-02T08:59:14;17.00;99.90
42261;DHT22;27926;48.062;7.474;2023-05-02T09:01:39;17.00;99.90
42261;DHT22;27926;48.062;7.474;2023-05-02T09:04:04;17.30;99.90
42261;DHT22;27926;48.062;7.474;2023-05-02T09:06:29;17.50;99.90
42261;DHT22;27926;48.062;7.474;2023-05-02T09:08:54;17.60;99.90
42261;DHT22;27926;48.062;7.474;2023-05-02T09:11:22;17.60;99.90
42261;DHT22;27926;48.062;7.474;2023-05-02T09:13:48;17.60;99.90
42261;DHT22;27926;48.062;7.474;2023-05-02T09:16:19;17.20;99.90
42261;DHT22;27926;48.062;7.474;2023-05-02T09:18:57;17.00;99.90
42261;DHT22;27926;48.062;7.474;2023-05-02T09:21:35;16.90;99.90
42261;DHT22;27926;48.062;7.474;2023-05-02T09:24:00;17.00;99.90
42261;DHT22;27926;48.062;7.474;2023-05-02T09:26:28;17.10;99.90
42261;DHT22;27926;48.062;7.474;2023-05-02T09:28:58;17.00;99.90
42261;DHT22;27926;48.062;7.474;2023-05-02T09:31:25;16.90;99.90
42261;DHT22;27926;48.062;7.474;2023-05-02T09:33:50;16.80;99.90
42261;DHT22;27926;48.062;7.474;2023-05-02T09:36:16;16.70;99.90
42261;DHT22;27926;48.062;7.474;2023-05-02T09:38:44;16.50;99.90
42261;DHT22;27926;48.062;7.474;2023-05-02T09:41:10;16.40;99.90
42261;DHT22;27926;48.062;7.474;2023-05-02T09:43:35;16.70;99.90
42261;DHT22;27926;48.062;7.474;2023-05-02T09:46:04;16.80;99.90
42261;DHT22;27926;48.062;7.474;2023-05-02T09:48:31;17.00;99.90
42261;DHT22;27926;48.062;7.474;2023-05-02T09:50:56;17.10;99.90
42261;DHT22;27926;48.062;7.474;2023-05-02T09:53:23;17.10;99.90
42261;DHT22;27926;48.062;7.474;2023-05-02T09:55:58;17.30;99.90
42261;DHT22;27926;48.062;7.474;2023-05-02T09:58:23;17.70;99.90
42261;DHT22;27926;48.062;7.474;2023-05-02T10:00:49;17.80;99.70
42261;DHT22;27926;48.062;7.474;2023-05-02T10:03:17;17.90;98.80
42261;DHT22;27926;48.062;7.474;2023-05-02T10:05:46;18.10;99.00
42261;DHT22;27926;48.062;7.474;2023-05-02T10:08:11;18.20;98.10
42261;DHT22;27926;48.062;7.474;2023-05-02T10:10:37;18.20;99.10
42261;DHT22;27926;48.062;7.474;2023-05-02T10:13:03;18.30;98.60
42261;DHT22;27926;48.062;7.474;2023-05-02T10:15:30;18.30;98.60
42261;DHT22;27926;48.062;7.474;2023-05-02T10:17:57;18.40;98.30
42261;DHT22;27926;48.062;7.474;2023-05-02T10:20:26;18.50;97.70
42261;DHT22;27926;48.062;7.474;2023-05-02T10:22:54;18.50;97.00
42261;DHT22;27926;48.062;7.474;2023-05-02T10:25:19;18.50;98.40
42261;DHT22;27926;48.062;7.474;2023-05-02T10:27:44;18.40;98.10
42261;DHT22;27926;48.062;7.474;2023-05-02T10:30:12;18.50;98.50
42261;DHT22;27926;48.062;7.474;2023-05-02T10:32:37;18.50;97.30
42261;DHT22;27926;48.062;7.474;2023-05-02T10:35:04;18.70;97.70
42261;DHT22;27926;48.062;7.474;2023-05-02T10:37:29;18.70;97.90
42261;DHT22;27926;48.062;7.474;2023-05-02T10:39:58;18.70;97.50
42261;DHT22;27926;48.062;7.474;2023-05-02T10:42:23;18.60;97.50
42261;DHT22;27926;48.062;7.474;2023-05-02T10:44:48;18.60;98.00
42261;DHT22;27926;48.062;7.474;2023-05-02T10:50:15;18.50;95.80
42261;DHT22;27926;48.062;7.474;2023-05-02T10:52:40;18.50;95.80
42261;DHT22;27926;48.062;7.474;2023-05-02T10:55:20;18.40;96.30
42261;DHT22;27926;48.062;7.474;2023-05-02T11:02:50;17.80;97.50
42261;DHT22;27926;48.062;7.474;2023-05-02T11:05:15;18.00;96.70
42261;DHT22;27926;48.062;7.474;2023-05-02T11:07:40;18.40;96.40
42261;DHT22;27926;48.062;7.474;2023-05-02T11:12:48;18.70;95.60
42261;DHT22;27926;48.062;7.474;2023-05-02T11:18:10;18.90;96.50
42261;DHT22;27926;48.062;7.474;2023-05-02T11:20:42;18.70;95.90
42261;DHT22;27926;48.062;7.474;2023-05-02T11:25:39;18.70;95.50
42261;DHT22;27926;48.062;7.474;2023-05-02T11:28:06;18.80;95.90
42261;DHT22;27926;48.062;7.474;2023-05-02T11:30:39;18.80;94.80
42261;DHT22;27926;48.062;7.474;2023-05-02T11:35:28;18.60;95.50
42261;DHT22;27926;48.062;7.474;2023-05-02T11:37:56;18.50;95.00
42261;DHT22;27926;48.062;7.474;2023-05-02T11:40:22;18.00;95.60
42261;DHT22;27926;48.062;7.474;2023-05-02T11:42:47;17.90;96.40
42261;DHT22;27926;48.062;7.474;2023-05-02T11:45:12;18.20;96.50
42261;DHT22;27926;48.062;7.474;2023-05-02T11:47:36;18.70;95.60
42261;DHT22;27926;48.062;7.474;2023-05-02T11:50:04;18.70;95.20
42261;DHT22;27926;48.062;7.474;2023-05-02T11:52:28;18.80;96.10
42261;DHT22;27926;48.062;7.474;2023-05-02T11:54:56;18.90;96.10
42261;DHT22;27926;48.062;7.474;2023-05-02T11:57:22;19.10;94.60
42261;DHT22;27926;48.062;7.474;2023-05-02T11:59:56;19.00;94.70
42261;DHT22;27926;48.062;7.474;2023-05-02T12:02:37;19.10;94.50
42261;DHT22;27926;48.062;7.474;2023-05-02T12:05:03;19.10;93.70
42261;DHT22;27926;48.062;7.474;2023-05-02T12:07:42;19.40;95.00
42261;DHT22;27926;48.062;7.474;2023-05-02T12:10:09;19.30;94.40
42261;DHT22;27926;48.062;7.474;2023-05-02T12:12:35;19.20;94.00
42261;DHT22;27926;48.062;7.474;2023-05-02T12:15:07;19.30;95.10
42261;DHT22;27926;48.062;7.474;2023-05-02T12:17:33;19.40;93.80
42261;DHT22;27926;48.062;7.474;2023-05-02T12:20:02;19.60;94.10
42261;DHT22;27926;48.062;7.474;2023-05-02T12:22:27;19.70;92.90
42261;DHT22;27926;48.062;7.474;2023-05-02T12:24:52;19.60;93.90
42261;DHT22;27926;48.062;7.474;2023-05-02T12:27:17;19.10;93.70
42261;DHT22;27926;48.062;7.474;2023-05-02T12:29:46;18.90;95.00
42261;DHT22;27926;48.062;7.474;2023-05-02T12:32:11;19.00;94.10
42261;DHT22;27926;48.062;7.474;2023-05-02T12:34:37;19.30;95.00
42261;DHT22;27926;48.062;7.474;2023-05-02T12:37:03;19.30;92.10
42261;DHT22;27926;48.062;7.474;2023-05-02T12:39:38;19.20;93.40
42261;DHT22;27926;48.062;7.474;2023-05-02T12:44:35;19.20;93.40
42261;DHT22;27926;48.062;7.474;2023-05-02T12:47:00;19.30;92.90
42261;DHT22;27926;48.062;7.474;2023-05-02T12:49:25;19.30;93.70
42261;DHT22;27926;48.062;7.474;2023-05-02T12:51:52;19.30;92.60
42261;DHT22;27926;48.062;7.474;2023-05-02T12:54:20;19.40;94.00
42261;DHT22;27926;48.062;7.474;2023-05-02T12:56:45;19.30;93.10
42261;DHT22;27926;48.062;7.474;2023-05-02T12:59:28;19.10;93.70
42261;DHT22;27926;48.062;7.474;2023-05-02T13:01:53;18.70;94.10
42261;DHT22;27926;48.062;7.474;2023-05-02T13:04:18;18.90;93.50
42261;DHT22;27926;48.062;7.474;2023-05-02T13:06:42;19.10;94.10
42261;DHT22;27926;48.062;7.474;2023-05-02T13:09:07;19.40;93.00
42261;DHT22;27926;48.062;7.474;2023-05-02T13:11:32;19.60;93.40
42261;DHT22;27926;48.062;7.474;2023-05-02T13:13:57;19.70;92.30
42261;DHT22;27926;48.062;7.474;2023-05-02T13:16:24;19.70;92.80
42261;DHT22;27926;48.062;7.474;2023-05-02T13:18:49;19.90;93.40
42261;DHT22;27926;48.062;7.474;2023-05-02T13:21:13;20.10;92.90
42261;DHT22;27926;48.062;7.474;2023-05-02T13:23:39;20.20;93.90
42261;DHT22;27926;48.062;7.474;2023-05-02T13:26:04;19.80;91.40
42261;DHT22;27926;48.062;7.474;2023-05-02T13:28:28;19.40;92.00
42261;DHT22;27926;48.062;7.474;2023-05-02T13:30:56;19.30;92.90
42261;DHT22;27926;48.062;7.474;2023-05-02T13:33:21;19.40;93.10
42261;DHT22;27926;48.062;7.474;2023-05-02T13:35:45;19.70;92.50
42261;DHT22;27926;48.062;7.474;2023-05-02T13:38:10;19.60;93.00
42261;DHT22;27926;48.062;7.474;2023-05-02T13:40:35;19.60;92.10
42261;DHT22;27926;48.062;7.474;2023-05-02T13:42:59;19.60;91.20
42261;DHT22;27926;48.062;7.474;2023-05-02T13:45:24;19.80;91.90
42261;DHT22;27926;48.062;7.474;2023-05-02T13:47:48;19.70;91.80
42261;DHT22;27926;48.062;7.474;2023-05-02T13:50:13;19.50;93.50
42261;DHT22;27926;48.062;7.474;2023-05-02T13:52:38;19.40;93.40
42261;DHT22;27926;48.062;7.474;2023-05-02T13:55:02;19.30;94.30
42261;DHT22;27926;48.062;7.474;2023-05-02T13:57:28;19.10;93.70
42261;DHT22;27926;48.062;7.474;2023-05-02T13:59:52;19.00;93.40
42261;DHT22;27926;48.062;7.474;2023-05-02T14:02:17;19.10;93.90
42261;DHT22;27926;48.062;7.474;2023-05-02T14:04:41;19.10;93.90
42261;DHT22;27926;48.062;7.474;2023-05-02T14:07:06;19.30;94.70
42261;DHT22;27926;48.062;7.474;2023-05-02T14:09:30;19.40;93.00
42261;DHT22;27926;48.062;7.474;2023-05-02T14:11:56;19.60;92.90
42261;DHT22;27926;48.062;7.474;2023-05-02T14:14:22;19.50;93.80
42261;DHT22;27926;48.062;7.474;2023-05-02T14:16:46;19.40;92.30
42261;DHT22;27926;48.062;7.474;2023-05-02T14:19:11;19.60;92.40
42261;DHT22;27926;48.062;7.474;2023-05-02T14:21:35;19.60;92.50
42261;DHT22;27926;48.062;7.474;2023-05-02T14:24:01;19.50;93.80
42261;DHT22;27926;48.062;7.474;2023-05-02T14:26:26;19.60;92.60
42261;DHT22;27926;48.062;7.474;2023-05-02T14:28:51;19.50;93.10
42261;DHT22;27926;48.062;7.474;2023-05-02T14:31:15;19.60;93.70
42261;DHT22;27926;48.062;7.474;2023-05-02T14:33:40;19.50;93.70
42261;DHT22;27926;48.062;7.474;2023-05-02T14:36:05;19.50;93.70
42261;DHT22;27926;48.062;7.474;2023-05-02T14:38:29;19.40;93.60
42261;DHT22;27926;48.062;7.474;2023-05-02T14:40:54;19.40;93.60
42261;DHT22;27926;48.062;7.474;2023-05-02T14:43:18;19.40;93.30
42261;DHT22;27926;48.062;7.474;2023-05-02T14:45:43;19.50;93.90
42261;DHT22;27926;48.062;7.474;2023-05-02T14:48:08;19.60;93.60
42261;DHT22;27926;48.062;7.474;2023-05-02T14:50:36;19.70;94.10
42261;DHT22;27926;48.062;7.474;2023-05-02T14:53:00;19.60;93.10
42261;DHT22;27926;48.062;7.474;2023-05-02T14:55:25;19.50;92.90
42261;DHT22;27926;48.062;7.474;2023-05-02T14:57:49;19.40;94.10
42261;DHT22;27926;48.062;7.474;2023-05-02T15:00:14;19.50;94.50
42261;DHT22;27926;48.062;7.474;2023-05-02T15:02:39;19.40;93.00
42261;DHT22;27926;48.062;7.474;2023-05-02T15:05:04;19.40;93.90
42261;DHT22;27926;48.062;7.474;2023-05-02T15:07:31;19.30;93.40
42261;DHT22;27926;48.062;7.474;2023-05-02T15:09:55;19.10;93.50
42261;DHT22;27926;48.062;7.474;2023-05-02T15:12:20;19.20;92.40
42261;DHT22;27926;48.062;7.474;2023-05-02T15:14:45;19.20;92.30
42261;DHT22;27926;48.062;7.474;2023-05-02T15:17:09;19.30;92.30
42261;DHT22;27926;48.062;7.474;2023-05-02T15:19:34;19.40;93.40
42261;DHT22;27926;48.062;7.474;2023-05-02T15:21:58;19.40;92.00
42261;DHT22;27926;48.062;7.474;2023-05-02T15:24:23;19.40;92.70
42261;DHT22;27926;48.062;7.474;2023-05-02T15:26:47;19.40;92.30
42261;DHT22;27926;48.062;7.474;2023-05-02T15:29:12;19.50;93.10
42261;DHT22;27926;48.062;7.474;2023-05-02T15:31:37;19.60;92.40
42261;DHT22;27926;48.062;7.474;2023-05-02T15:34:02;19.40;92.10
42261;DHT22;27926;48.062;7.474;2023-05-02T15:36:27;19.30;92.30
42261;DHT22;27926;48.062;7.474;2023-05-02T15:38:57;19.10;92.30
42261;DHT22;27926;48.062;7.474;2023-05-02T15:41:23;19.00;92.70
42261;DHT22;27926;48.062;7.474;2023-05-02T15:43:48;19.10;93.30
42261;DHT22;27926;48.062;7.474;2023-05-02T15:46:13;19.00;92.80
42261;DHT22;27926;48.062;7.474;2023-05-02T15:48:38;18.90;93.40
42261;DHT22;27926;48.062;7.474;2023-05-02T15:51:03;18.70;93.40
42261;DHT22;27926;48.062;7.474;2023-05-02T15:53:28;18.80;94.30
42261;DHT22;27926;48.062;7.474;2023-05-02T15:55:53;18.60;94.60
42261;DHT22;27926;48.062;7.474;2023-05-02T15:58:18;18.50;94.90
42261;DHT22;27926;48.062;7.474;2023-05-02T16:00:44;18.50;94.70
42261;DHT22;27926;48.062;7.474;2023-05-02T16:03:09;18.60;94.50
42261;DHT22;27926;48.062;7.474;2023-05-02T16:05:35;18.50;94.50